Tropical Cyclones
[Index]
Main Index Home Page Stock Weather Photos Extreme Storms Discussion Storm News and Storm Chasing Reports Tropical Cyclones / Hurricanes / Typhoons Weather Data and Links Wild Fires / Bushfires Weather Observation Techniques Weather Picture Catalogue Tornado Pictures and Reports Stock Video Footage and DVDs for sale
Season 2012-2013 Tropical Cyclone HALEY Track Map
Season 2012-2013 Summaries: [BoM-AU] [JTWC-AU] [JTWC-SIO] [JTWC-SPAC] [JTWC-SH]
<<- Previous TC | JTWC 2012-2013 Season | Next TC ->>

click for intensity scale information  Lat/long Grid: Show Hide

 Date Labels: Show Hide

Joint Typhoon Warning Centre Cyclone Data

Name: HALEY

08 Feb 2013 12:00 UTC to 14 Feb 2013 12:00 UTC

    date/time    lat    long     hPa   cat  kts
2013-02-08 12   15.8   161.3W   1010         15          
2013-02-08 18   17.0   160.0W   1004         25          
2013-02-09 00   18.1   158.7W   1000         30          
2013-02-09 06   19.2   157.6W   1000         30          
2013-02-09 12   20.1   156.4W    993    1    40          
2013-02-09 18   20.8   155.2W    989    1    45          
2013-02-10 00   21.7   154.0W    989    1    45          
2013-02-10 06   22.4   153.0W    989    1    45          
2013-02-10 12   23.0   151.9W    989    1    45          
2013-02-10 18   24.0   151.1W    993    1    40          
2013-02-11 00   24.7   150.0W    996         35          
2013-02-11 06   25.2   149.1W   1000         30          
2013-02-11 12   25.6   148.3W   1000         30          
2013-02-11 18   26.0   147.7W   1004         25          
2013-02-12 00   26.3   147.3W   1007         20          
2013-02-12 06   26.4   146.9W   1007         20          
2013-02-12 12   26.3   146.6W   1007         20          
2013-02-12 18   26.2   146.3W   1007         20          
2013-02-13 00   26.0   146.1W   1007         20          
2013-02-13 06   25.5   146.0W   1007         20          
2013-02-13 12   24.9   146.1W   1007         20          
2013-02-13 18   24.6   146.0W   1007         20          
2013-02-14 00   24.2   146.4W   1007         20          
2013-02-14 06   23.7   146.8W   1007         20          
2013-02-14 12   23.2   147.4W   1007         20          
Winds are 1-min average.

Tropical cyclone tracks developed by Michael Bath using data from the Joint Typhoon Warning Centre Best Tracks and Google Maps.


[Australian Severe Weather index] [Copyright Notice] [Email Contacts] [Search This Site] [Privacy Policy]
Document: tropical_cyclone_haley.htm Updated: 28 June 2017